sensor_id;sensor_type;location;lat;lon;timestamp;temperature;humidity
17728;DHT22;8984;49.268;12.302;2022-12-18T00:01:15;-3.10;99.90
17728;DHT22;8984;49.268;12.302;2022-12-18T00:03:42;-3.00;99.90
17728;DHT22;8984;49.268;12.302;2022-12-18T00:06:09;-3.00;99.90
17728;DHT22;8984;49.268;12.302;2022-12-18T00:08:37;-3.00;99.90
17728;DHT22;8984;49.268;12.302;2022-12-18T00:11:06;-2.90;99.90
17728;DHT22;8984;49.268;12.302;2022-12-18T00:13:33;-2.90;99.90
17728;DHT22;8984;49.268;12.302;2022-12-18T00:16:02;-2.80;99.90
17728;DHT22;8984;49.268;12.302;2022-12-18T00:18:29;-2.80;99.90
17728;DHT22;8984;49.268;12.302;2022-12-18T00:20:58;-2.80;99.90
17728;DHT22;8984;49.268;12.302;2022-12-18T00:23:26;-2.80;99.90
17728;DHT22;8984;49.268;12.302;2022-12-18T00:25:53;-2.70;99.90
17728;DHT22;8984;49.268;12.302;2022-12-18T00:28:21;-2.70;99.90
17728;DHT22;8984;49.268;12.302;2022-12-18T00:30:48;-2.60;99.90
17728;DHT22;8984;49.268;12.302;2022-12-18T00:33:16;-2.60;99.90
17728;DHT22;8984;49.268;12.302;2022-12-18T00:35:44;-2.60;99.90
17728;DHT22;8984;49.268;12.302;2022-12-18T00:38:11;-2.50;99.90
17728;DHT22;8984;49.268;12.302;2022-12-18T00:40:38;-2.60;99.90
17728;DHT22;8984;49.268;12.302;2022-12-18T00:43:11;-2.50;99.90
17728;DHT22;8984;49.268;12.302;2022-12-18T00:45:38;-2.50;99.90
17728;DHT22;8984;49.268;12.302;2022-12-18T00:48:06;-2.40;99.90
17728;DHT22;8984;49.268;12.302;2022-12-18T00:50:33;-2.40;99.90
17728;DHT22;8984;49.268;12.302;2022-12-18T00:53:00;-2.40;99.90
17728;DHT22;8984;49.268;12.302;2022-12-18T00:55:28;-2.40;99.90
17728;DHT22;8984;49.268;12.302;2022-12-18T00:57:55;-2.50;99.90
17728;DHT22;8984;49.268;12.302;2022-12-18T01:00:22;-2.50;99.90
17728;DHT22;8984;49.268;12.302;2022-12-18T01:02:50;-2.40;99.90
17728;DHT22;8984;49.268;12.302;2022-12-18T01:05:17;-2.40;99.90
17728;DHT22;8984;49.268;12.302;2022-12-18T01:07:44;-2.30;99.90
17728;DHT22;8984;49.268;12.302;2022-12-18T01:10:12;-2.70;99.90
17728;DHT22;8984;49.268;12.302;2022-12-18T01:12:40;-2.60;99.90
17728;DHT22;8984;49.268;12.302;2022-12-18T01:15:08;-2.60;99.90
17728;DHT22;8984;49.268;12.302;2022-12-18T01:17:36;-2.60;99.90
17728;DHT22;8984;49.268;12.302;2022-12-18T01:20:05;-2.60;99.90
17728;DHT22;8984;49.268;12.302;2022-12-18T01:22:34;-2.60;99.90
17728;DHT22;8984;49.268;12.302;2022-12-18T01:25:01;-2.80;99.90
17728;DHT22;8984;49.268;12.302;2022-12-18T01:27:28;-2.70;99.90
17728;DHT22;8984;49.268;12.302;2022-12-18T01:29:55;-2.60;99.90
17728;DHT22;8984;49.268;12.302;2022-12-18T01:32:22;-2.70;99.90
17728;DHT22;8984;49.268;12.302;2022-12-18T01:34:49;-2.60;99.90
17728;DHT22;8984;49.268;12.302;2022-12-18T01:37:18;-2.60;99.90
17728;DHT22;8984;49.268;12.302;2022-12-18T01:39:45;-2.60;99.90
17728;DHT22;8984;49.268;12.302;2022-12-18T01:42:13;-2.50;99.90
17728;DHT22;8984;49.268;12.302;2022-12-18T01:44:59;-2.40;99.90
17728;DHT22;8984;49.268;12.302;2022-12-18T01:47:30;-2.40;99.90
17728;DHT22;8984;49.268;12.302;2022-12-18T01:50:00;-2.40;99.90
17728;DHT22;8984;49.268;12.302;2022-12-18T01:52:31;-2.40;99.90
17728;DHT22;8984;49.268;12.302;2022-12-18T01:55:00;-2.40;99.90
17728;DHT22;8984;49.268;12.302;2022-12-18T01:57:29;-2.40;99.90
17728;DHT22;8984;49.268;12.302;2022-12-18T01:59:59;-2.30;99.90
17728;DHT22;8984;49.268;12.302;2022-12-18T02:02:28;-2.40;99.90
17728;DHT22;8984;49.268;12.302;2022-12-18T02:04:55;-2.30;99.90
17728;DHT22;8984;49.268;12.302;2022-12-18T02:07:31;-2.40;99.90
17728;DHT22;8984;49.268;12.302;2022-12-18T02:10:06;-2.40;99.90
17728;DHT22;8984;49.268;12.302;2022-12-18T02:12:41;-2.40;99.90
17728;DHT22;8984;49.268;12.302;2022-12-18T02:15:13;-2.40;99.90
17728;DHT22;8984;49.268;12.302;2022-12-18T02:17:47;-2.40;99.90
17728;DHT22;8984;49.268;12.302;2022-12-18T02:20:20;-2.40;99.90
17728;DHT22;8984;49.268;12.302;2022-12-18T02:23:04;-2.30;99.90
17728;DHT22;8984;49.268;12.302;2022-12-18T02:28:16;-2.40;99.90
17728;DHT22;8984;49.268;12.302;2022-12-18T02:30:48;-2.40;99.90
17728;DHT22;8984;49.268;12.302;2022-12-18T02:33:16;-2.40;99.90
17728;DHT22;8984;49.268;12.302;2022-12-18T02:35:45;-2.40;99.90
17728;DHT22;8984;49.268;12.302;2022-12-18T02:38:14;-2.40;99.90
17728;DHT22;8984;49.268;12.302;2022-12-18T02:40:42;-2.40;99.90
17728;DHT22;8984;49.268;12.302;2022-12-18T02:43:11;-2.40;99.90
17728;DHT22;8984;49.268;12.302;2022-12-18T02:45:49;-2.30;99.90
17728;DHT22;8984;49.268;12.302;2022-12-18T02:48:18;-2.30;99.90
17728;DHT22;8984;49.268;12.302;2022-12-18T02:50:52;-2.40;99.90
17728;DHT22;8984;49.268;12.302;2022-12-18T02:53:26;-2.30;99.90
17728;DHT22;8984;49.268;12.302;2022-12-18T02:56:03;-2.30;99.90
17728;DHT22;8984;49.268;12.302;2022-12-18T02:58:38;-2.30;99.90
17728;DHT22;8984;49.268;12.302;2022-12-18T03:01:11;-2.40;99.90
17728;DHT22;8984;49.268;12.302;2022-12-18T03:03:44;-2.50;99.90
17728;DHT22;8984;49.268;12.302;2022-12-18T03:06:18;-2.50;99.90
17728;DHT22;8984;49.268;12.302;2022-12-18T03:08:50;-2.50;99.90
17728;DHT22;8984;49.268;12.302;2022-12-18T03:11:19;-2.40;99.90
17728;DHT22;8984;49.268;12.302;2022-12-18T03:14:07;-2.40;99.90
17728;DHT22;8984;49.268;12.302;2022-12-18T03:16:38;-2.40;99.90
17728;DHT22;8984;49.268;12.302;2022-12-18T03:19:10;-2.60;99.90
17728;DHT22;8984;49.268;12.302;2022-12-18T03:21:42;-2.60;99.90
17728;DHT22;8984;49.268;12.302;2022-12-18T03:24:10;-2.40;99.90
17728;DHT22;8984;49.268;12.302;2022-12-18T03:26:40;-2.50;99.90
17728;DHT22;8984;49.268;12.302;2022-12-18T03:29:09;-2.40;99.90
17728;DHT22;8984;49.268;12.302;2022-12-18T03:31:43;-2.40;99.90
17728;DHT22;8984;49.268;12.302;2022-12-18T03:34:16;-2.40;99.90
17728;DHT22;8984;49.268;12.302;2022-12-18T03:36:44;-2.40;99.90
17728;DHT22;8984;49.268;12.302;2022-12-18T03:39:11;-2.40;99.90
17728;DHT22;8984;49.268;12.302;2022-12-18T03:41:43;-2.40;99.90
17728;DHT22;8984;49.268;12.302;2022-12-18T03:44:13;-2.40;99.90
17728;DHT22;8984;49.268;12.302;2022-12-18T03:46:48;-2.40;99.90
17728;DHT22;8984;49.268;12.302;2022-12-18T03:49:25;-2.60;99.90
17728;DHT22;8984;49.268;12.302;2022-12-18T03:51:57;-2.70;99.90
17728;DHT22;8984;49.268;12.302;2022-12-18T03:54:27;-2.80;99.90
17728;DHT22;8984;49.268;12.302;2022-12-18T03:56:59;-2.90;99.90
17728;DHT22;8984;49.268;12.302;2022-12-18T03:59:29;-2.80;99.90
17728;DHT22;8984;49.268;12.302;2022-12-18T04:01:59;-2.80;99.90
17728;DHT22;8984;49.268;12.302;2022-12-18T04:04:27;-2.90;99.90
17728;DHT22;8984;49.268;12.302;2022-12-18T04:06:56;-2.80;99.90
17728;DHT22;8984;49.268;12.302;2022-12-18T04:09:24;-2.70;99.90
17728;DHT22;8984;49.268;12.302;2022-12-18T04:11:52;-2.70;99.90
17728;DHT22;8984;49.268;12.302;2022-12-18T04:14:19;-2.70;99.90
17728;DHT22;8984;49.268;12.302;2022-12-18T04:16:46;-2.60;99.90
17728;DHT22;8984;49.268;12.302;2022-12-18T04:19:15;-2.60;99.90
17728;DHT22;8984;49.268;12.302;2022-12-18T04:21:42;-2.50;99.90
17728;DHT22;8984;49.268;12.302;2022-12-18T04:24:09;-2.50;99.90
17728;DHT22;8984;49.268;12.302;2022-12-18T04:26:36;-2.50;99.90
17728;DHT22;8984;49.268;12.302;2022-12-18T04:29:03;-2.40;99.90
17728;DHT22;8984;49.268;12.302;2022-12-18T04:31:30;-2.50;99.90
17728;DHT22;8984;49.268;12.302;2022-12-18T04:33:57;-2.40;99.90
17728;DHT22;8984;49.268;12.302;2022-12-18T04:36:25;-2.40;99.90
17728;DHT22;8984;49.268;12.302;2022-12-18T04:38:53;-2.40;99.90
17728;DHT22;8984;49.268;12.302;2022-12-18T04:41:20;-2.40;99.90
17728;DHT22;8984;49.268;12.302;2022-12-18T04:43:47;-2.40;99.90
17728;DHT22;8984;49.268;12.302;2022-12-18T04:46:14;-2.30;99.90
17728;DHT22;8984;49.268;12.302;2022-12-18T04:48:41;-2.40;99.90
17728;DHT22;8984;49.268;12.302;2022-12-18T04:51:08;-2.40;99.90
17728;DHT22;8984;49.268;12.302;2022-12-18T04:53:36;-2.50;99.90
17728;DHT22;8984;49.268;12.302;2022-12-18T04:56:05;-2.70;99.90
17728;DHT22;8984;49.268;12.302;2022-12-18T04:58:32;-2.80;99.90
17728;DHT22;8984;49.268;12.302;2022-12-18T05:00:59;-2.80;99.90
17728;DHT22;8984;49.268;12.302;2022-12-18T05:03:26;-2.80;99.90
17728;DHT22;8984;49.268;12.302;2022-12-18T05:05:53;-2.80;99.90
17728;DHT22;8984;49.268;12.302;2022-12-18T05:08:20;-2.80;99.90
17728;DHT22;8984;49.268;12.302;2022-12-18T05:10:49;-2.80;99.90
17728;DHT22;8984;49.268;12.302;2022-12-18T05:13:16;-2.80;99.90
17728;DHT22;8984;49.268;12.302;2022-12-18T05:15:43;-2.70;99.90
17728;DHT22;8984;49.268;12.302;2022-12-18T05:18:17;-2.70;99.90
17728;DHT22;8984;49.268;12.302;2022-12-18T05:20:44;-2.80;99.90
17728;DHT22;8984;49.268;12.302;2022-12-18T05:23:12;-2.80;99.90
17728;DHT22;8984;49.268;12.302;2022-12-18T05:25:39;-2.90;99.90
17728;DHT22;8984;49.268;12.302;2022-12-18T05:28:08;-2.90;99.90
17728;DHT22;8984;49.268;12.302;2022-12-18T05:30:35;-2.90;99.90
17728;DHT22;8984;49.268;12.302;2022-12-18T05:33:02;-2.90;99.90
17728;DHT22;8984;49.268;12.302;2022-12-18T05:35:29;-2.80;99.90
17728;DHT22;8984;49.268;12.302;2022-12-18T05:37:56;-2.80;99.90
17728;DHT22;8984;49.268;12.302;2022-12-18T05:40:23;-2.80;99.90
17728;DHT22;8984;49.268;12.302;2022-12-18T05:42:50;-2.80;99.90
17728;DHT22;8984;49.268;12.302;2022-12-18T05:45:18;-2.70;99.90
17728;DHT22;8984;49.268;12.302;2022-12-18T05:47:45;-2.70;99.90
17728;DHT22;8984;49.268;12.302;2022-12-18T05:50:12;-2.80;99.90
17728;DHT22;8984;49.268;12.302;2022-12-18T05:52:39;-2.70;99.90
17728;DHT22;8984;49.268;12.302;2022-12-18T05:55:07;-2.80;99.90
17728;DHT22;8984;49.268;12.302;2022-12-18T05:57:34;-2.80;99.90
17728;DHT22;8984;49.268;12.302;2022-12-18T06:00:01;-2.70;99.90
17728;DHT22;8984;49.268;12.302;2022-12-18T06:02:31;-2.70;99.90
17728;DHT22;8984;49.268;12.302;2022-12-18T06:04:58;-2.80;99.90
17728;DHT22;8984;49.268;12.302;2022-12-18T06:07:25;-2.90;99.90
17728;DHT22;8984;49.268;12.302;2022-12-18T06:09:52;-3.00;99.90
17728;DHT22;8984;49.268;12.302;2022-12-18T06:12:19;-3.00;99.90
17728;DHT22;8984;49.268;12.302;2022-12-18T06:14:46;-3.10;99.90
17728;DHT22;8984;49.268;12.302;2022-12-18T06:17:13;-3.10;99.90
17728;DHT22;8984;49.268;12.302;2022-12-18T06:19:42;-3.10;99.90
17728;DHT22;8984;49.268;12.302;2022-12-18T06:22:09;-3.00;99.90
17728;DHT22;8984;49.268;12.302;2022-12-18T06:24:36;-3.00;99.90
17728;DHT22;8984;49.268;12.302;2022-12-18T06:27:03;-3.10;99.90
17728;DHT22;8984;49.268;12.302;2022-12-18T06:29:30;-3.00;99.90
17728;DHT22;8984;49.268;12.302;2022-12-18T06:31:57;-2.90;99.90
17728;DHT22;8984;49.268;12.302;2022-12-18T06:34:24;-2.90;99.90
17728;DHT22;8984;49.268;12.302;2022-12-18T06:36:52;-2.90;99.90
17728;DHT22;8984;49.268;12.302;2022-12-18T06:39:19;-2.90;99.90
17728;DHT22;8984;49.268;12.302;2022-12-18T06:41:46;-2.90;99.90
17728;DHT22;8984;49.268;12.302;2022-12-18T06:44:13;-2.80;99.90
17728;DHT22;8984;49.268;12.302;2022-12-18T06:46:41;-2.80;99.90
17728;DHT22;8984;49.268;12.302;2022-12-18T06:49:08;-2.90;99.90
17728;DHT22;8984;49.268;12.302;2022-12-18T06:51:35;-2.90;99.90
17728;DHT22;8984;49.268;12.302;2022-12-18T06:54:03;-3.00;99.90
17728;DHT22;8984;49.268;12.302;2022-12-18T06:56:30;-3.10;99.90
17728;DHT22;8984;49.268;12.302;2022-12-18T06:58:58;-3.00;99.90
17728;DHT22;8984;49.268;12.302;2022-12-18T07:01:25;-3.00;99.90
17728;DHT22;8984;49.268;12.302;2022-12-18T07:03:53;-3.00;99.90
17728;DHT22;8984;49.268;12.302;2022-12-18T07:06:22;-3.10;99.90
17728;DHT22;8984;49.268;12.302;2022-12-18T07:08:50;-3.20;99.90
17728;DHT22;8984;49.268;12.302;2022-12-18T07:11:18;-3.20;99.90
17728;DHT22;8984;49.268;12.302;2022-12-18T07:13:46;-3.40;99.90
17728;DHT22;8984;49.268;12.302;2022-12-18T07:16:15;-3.30;99.90
17728;DHT22;8984;49.268;12.302;2022-12-18T07:18:42;-3.20;99.90
17728;DHT22;8984;49.268;12.302;2022-12-18T07:21:14;-3.30;99.90
17728;DHT22;8984;49.268;12.302;2022-12-18T07:23:42;-3.30;99.90
17728;DHT22;8984;49.268;12.302;2022-12-18T07:26:11;-3.50;99.90
17728;DHT22;8984;49.268;12.302;2022-12-18T07:28:41;-3.50;99.90
17728;DHT22;8984;49.268;12.302;2022-12-18T07:31:12;-3.60;99.90
17728;DHT22;8984;49.268;12.302;2022-12-18T07:33:40;-3.60;99.90
17728;DHT22;8984;49.268;12.302;2022-12-18T07:36:08;-3.50;99.90
17728;DHT22;8984;49.268;12.302;2022-12-18T07:38:36;-3.50;99.90
17728;DHT22;8984;49.268;12.302;2022-12-18T07:41:05;-3.60;99.90
17728;DHT22;8984;49.268;12.302;2022-12-18T07:43:32;-3.60;99.90
17728;DHT22;8984;49.268;12.302;2022-12-18T07:46:01;-3.70;99.90
17728;DHT22;8984;49.268;12.302;2022-12-18T07:48:28;-3.90;99.90
17728;DHT22;8984;49.268;12.302;2022-12-18T07:50:58;-3.80;99.90
17728;DHT22;8984;49.268;12.302;2022-12-18T07:53:25;-3.80;99.90
17728;DHT22;8984;49.268;12.302;2022-12-18T07:55:55;-3.90;99.90
17728;DHT22;8984;49.268;12.302;2022-12-18T07:58:22;-3.90;99.90
17728;DHT22;8984;49.268;12.302;2022-12-18T08:00:49;-3.80;99.90
17728;DHT22;8984;49.268;12.302;2022-12-18T08:03:18;-3.90;99.90
17728;DHT22;8984;49.268;12.302;2022-12-18T08:05:45;-3.90;99.90
17728;DHT22;8984;49.268;12.302;2022-12-18T08:08:12;-4.00;99.90
17728;DHT22;8984;49.268;12.302;2022-12-18T08:10:39;-4.00;99.90
17728;DHT22;8984;49.268;12.302;2022-12-18T08:13:06;-4.00;99.90
17728;DHT22;8984;49.268;12.302;2022-12-18T08:15:33;-4.00;99.90
17728;DHT22;8984;49.268;12.302;2022-12-18T08:18:00;-4.00;99.90
17728;DHT22;8984;49.268;12.302;2022-12-18T08:20:29;-3.90;99.90
17728;DHT22;8984;49.268;12.302;2022-12-18T08:22:56;-3.90;99.90
17728;DHT22;8984;49.268;12.302;2022-12-18T08:25:24;-3.90;99.90
17728;DHT22;8984;49.268;12.302;2022-12-18T08:27:51;-3.80;99.90
17728;DHT22;8984;49.268;12.302;2022-12-18T08:30:18;-3.90;99.90
17728;DHT22;8984;49.268;12.302;2022-12-18T08:32:45;-3.70;99.90
17728;DHT22;8984;49.268;12.302;2022-12-18T08:35:12;-3.60;99.90
17728;DHT22;8984;49.268;12.302;2022-12-18T08:37:40;-3.60;99.90
17728;DHT22;8984;49.268;12.302;2022-12-18T08:40:08;-3.50;99.90
17728;DHT22;8984;49.268;12.302;2022-12-18T08:42:36;-3.50;99.90
17728;DHT22;8984;49.268;12.302;2022-12-18T08:45:21;-3.40;99.90
17728;DHT22;8984;49.268;12.302;2022-12-18T08:47:48;-3.30;99.90
17728;DHT22;8984;49.268;12.302;2022-12-18T08:50:15;-3.20;99.90
17728;DHT22;8984;49.268;12.302;2022-12-18T08:52:43;-3.00;99.90
17728;DHT22;8984;49.268;12.302;2022-12-18T08:55:10;-2.80;99.90
17728;DHT22;8984;49.268;12.302;2022-12-18T08:57:37;-2.80;99.90
17728;DHT22;8984;49.268;12.302;2022-12-18T09:00:05;-2.80;99.90
17728;DHT22;8984;49.268;12.302;2022-12-18T09:02:33;-2.80;99.90
17728;DHT22;8984;49.268;12.302;2022-12-18T09:05:00;-2.80;99.90
17728;DHT22;8984;49.268;12.302;2022-12-18T09:07:27;-2.70;99.90
17728;DHT22;8984;49.268;12.302;2022-12-18T09:09:56;-2.70;99.90
17728;DHT22;8984;49.268;12.302;2022-12-18T09:12:23;-2.60;99.90
17728;DHT22;8984;49.268;12.302;2022-12-18T09:14:50;-2.50;99.90
17728;DHT22;8984;49.268;12.302;2022-12-18T09:17:17;-2.40;99.90
17728;DHT22;8984;49.268;12.302;2022-12-18T09:19:44;-2.30;99.90
17728;DHT22;8984;49.268;12.302;2022-12-18T09:22:11;-2.30;99.90
17728;DHT22;8984;49.268;12.302;2022-12-18T09:24:38;-2.20;99.90
17728;DHT22;8984;49.268;12.302;2022-12-18T09:27:07;-2.20;99.90
17728;DHT22;8984;49.268;12.302;2022-12-18T09:29:34;-2.10;99.90
17728;DHT22;8984;49.268;12.302;2022-12-18T09:32:01;-2.20;99.90
17728;DHT22;8984;49.268;12.302;2022-12-18T09:34:28;-2.10;99.90
17728;DHT22;8984;49.268;12.302;2022-12-18T09:36:55;-2.10;99.90
17728;DHT22;8984;49.268;12.302;2022-12-18T09:39:22;-2.00;99.90
17728;DHT22;8984;49.268;12.302;2022-12-18T09:41:51;-1.80;99.90
17728;DHT22;8984;49.268;12.302;2022-12-18T09:44:24;-1.60;99.90
17728;DHT22;8984;49.268;12.302;2022-12-18T09:47:03;-1.50;99.90
17728;DHT22;8984;49.268;12.302;2022-12-18T09:49:38;-1.40;99.90
17728;DHT22;8984;49.268;12.302;2022-12-18T09:52:11;-1.30;99.90
17728;DHT22;8984;49.268;12.302;2022-12-18T09:54:46;-1.30;99.90
17728;DHT22;8984;49.268;12.302;2022-12-18T09:57:17;-1.20;99.90
17728;DHT22;8984;49.268;12.302;2022-12-18T09:59:49;-1.10;99.90
17728;DHT22;8984;49.268;12.302;2022-12-18T10:02:20;-1.00;99.90
17728;DHT22;8984;49.268;12.302;2022-12-18T10:04:59;-0.80;99.90
17728;DHT22;8984;49.268;12.302;2022-12-18T10:07:32;-0.70;99.90
17728;DHT22;8984;49.268;12.302;2022-12-18T10:10:06;-0.70;99.90
17728;DHT22;8984;49.268;12.302;2022-12-18T10:12:41;-0.70;99.90
17728;DHT22;8984;49.268;12.302;2022-12-18T10:15:18;-0.80;99.90
17728;DHT22;8984;49.268;12.302;2022-12-18T10:17:50;-0.80;99.90
17728;DHT22;8984;49.268;12.302;2022-12-18T10:20:23;-1.10;99.90
17728;DHT22;8984;49.268;12.302;2022-12-18T10:22:56;-1.20;99.90
17728;DHT22;8984;49.268;12.302;2022-12-18T10:25:27;-1.20;99.90
17728;DHT22;8984;49.268;12.302;2022-12-18T10:27:58;-1.20;99.90
17728;DHT22;8984;49.268;12.302;2022-12-18T10:30:28;-1.10;99.90
17728;DHT22;8984;49.268;12.302;2022-12-18T10:33:00;-1.10;99.90
17728;DHT22;8984;49.268;12.302;2022-12-18T10:35:27;-1.10;99.90
17728;DHT22;8984;49.268;12.302;2022-12-18T10:38:04;-1.00;99.90
17728;DHT22;8984;49.268;12.302;2022-12-18T10:40:32;-0.90;99.90
17728;DHT22;8984;49.268;12.302;2022-12-18T10:43:12;-0.80;99.90
17728;DHT22;8984;49.268;12.302;2022-12-18T10:46:01;-0.80;99.90
17728;DHT22;8984;49.268;12.302;2022-12-18T10:48:30;-0.90;99.90
17728;DHT22;8984;49.268;12.302;2022-12-18T10:50:57;-1.00;99.90
17728;DHT22;8984;49.268;12.302;2022-12-18T10:53:26;-1.00;99.90
17728;DHT22;8984;49.268;12.302;2022-12-18T10:55:55;-0.90;99.90
17728;DHT22;8984;49.268;12.302;2022-12-18T10:58:27;-0.80;99.90
17728;DHT22;8984;49.268;12.302;2022-12-18T11:01:08;-0.90;99.90
17728;DHT22;8984;49.268;12.302;2022-12-18T11:03:37;-0.80;99.90
17728;DHT22;8984;49.268;12.302;2022-12-18T11:06:07;-0.90;99.90
17728;DHT22;8984;49.268;12.302;2022-12-18T11:08:34;-0.90;99.90
17728;DHT22;8984;49.268;12.302;2022-12-18T11:11:02;-0.80;99.90
17728;DHT22;8984;49.268;12.302;2022-12-18T11:13:30;-0.80;99.90
17728;DHT22;8984;49.268;12.302;2022-12-18T11:15:58;-0.70;99.90
17728;DHT22;8984;49.268;12.302;2022-12-18T11:18:29;-1.00;99.90
17728;DHT22;8984;49.268;12.302;2022-12-18T11:20:59;-0.90;99.90
17728;DHT22;8984;49.268;12.302;2022-12-18T11:23:27;-0.80;99.90
17728;DHT22;8984;49.268;12.302;2022-12-18T11:25:56;-0.70;99.90
17728;DHT22;8984;49.268;12.302;2022-12-18T11:28:43;-0.60;99.90
17728;DHT22;8984;49.268;12.302;2022-12-18T11:31:20;-0.70;99.90
17728;DHT22;8984;49.268;12.302;2022-12-18T11:34:01;-0.70;99.90
17728;DHT22;8984;49.268;12.302;2022-12-18T11:36:32;-0.80;99.90
17728;DHT22;8984;49.268;12.302;2022-12-18T11:39:05;-0.70;99.90
17728;DHT22;8984;49.268;12.302;2022-12-18T11:41:37;-0.70;99.90
17728;DHT22;8984;49.268;12.302;2022-12-18T11:44:26;-0.70;99.90
17728;DHT22;8984;49.268;12.302;2022-12-18T11:46:59;-0.80;99.90
17728;DHT22;8984;49.268;12.302;2022-12-18T11:49:32;-0.70;99.90
17728;DHT22;8984;49.268;12.302;2022-12-18T11:52:03;-0.70;99.90
17728;DHT22;8984;49.268;12.302;2022-12-18T11:54:31;-0.60;99.90
17728;DHT22;8984;49.268;12.302;2022-12-18T11:57:02;-0.60;99.90
17728;DHT22;8984;49.268;12.302;2022-12-18T11:59:35;-0.60;99.90
17728;DHT22;8984;49.268;12.302;2022-12-18T12:02:16;-0.60;99.90
17728;DHT22;8984;49.268;12.302;2022-12-18T12:07:38;-0.40;99.90
17728;DHT22;8984;49.268;12.302;2022-12-18T12:10:20;-0.20;99.90
17728;DHT22;8984;49.268;12.302;2022-12-18T12:13:06;0.10;99.90
17728;DHT22;8984;49.268;12.302;2022-12-18T12:15:42;0.20;99.90
17728;DHT22;8984;49.268;12.302;2022-12-18T12:18:19;0.30;99.90
17728;DHT22;8984;49.268;12.302;2022-12-18T12:20:56;0.30;99.90
17728;DHT22;8984;49.268;12.302;2022-12-18T12:23:35;0.40;99.90
17728;DHT22;8984;49.268;12.302;2022-12-18T12:26:06;0.30;99.90
17728;DHT22;8984;49.268;12.302;2022-12-18T12:28:52;0.20;99.90
17728;DHT22;8984;49.268;12.302;2022-12-18T12:31:32;0.20;99.90
17728;DHT22;8984;49.268;12.302;2022-12-18T12:34:09;0.00;99.90
17728;DHT22;8984;49.268;12.302;2022-12-18T12:36:49;0.00;99.90
17728;DHT22;8984;49.268;12.302;2022-12-18T12:39:25;0.00;99.90
17728;DHT22;8984;49.268;12.302;2022-12-18T12:41:53;-0.10;99.90
17728;DHT22;8984;49.268;12.302;2022-12-18T12:44:41;-0.20;99.90
17728;DHT22;8984;49.268;12.302;2022-12-18T12:47:14;-0.10;99.90
17728;DHT22;8984;49.268;12.302;2022-12-18T12:49:45;-0.40;99.90
17728;DHT22;8984;49.268;12.302;2022-12-18T12:52:18;-0.30;99.90
17728;DHT22;8984;49.268;12.302;2022-12-18T12:54:48;-0.40;99.90
17728;DHT22;8984;49.268;12.302;2022-12-18T12:57:21;-0.40;99.90
17728;DHT22;8984;49.268;12.302;2022-12-18T12:59:56;-0.40;99.90
17728;DHT22;8984;49.268;12.302;2022-12-18T13:02:28;-0.40;99.90
17728;DHT22;8984;49.268;12.302;2022-12-18T13:05:00;-0.30;99.90
17728;DHT22;8984;49.268;12.302;2022-12-18T13:07:34;-0.20;99.90
17728;DHT22;8984;49.268;12.302;2022-12-18T13:10:20;-0.10;99.90
17728;DHT22;8984;49.268;12.302;2022-12-18T13:12:54;-0.10;99.90
17728;DHT22;8984;49.268;12.302;2022-12-18T13:15:26;-0.10;99.90
17728;DHT22;8984;49.268;12.302;2022-12-18T13:18:04;-0.10;99.90
17728;DHT22;8984;49.268;12.302;2022-12-18T13:20:36;0.20;99.90
17728;DHT22;8984;49.268;12.302;2022-12-18T13:26:00;0.40;99.90
17728;DHT22;8984;49.268;12.302;2022-12-18T13:28:52;0.90;99.90
17728;DHT22;8984;49.268;12.302;2022-12-18T13:31:58;1.20;99.90
17728;DHT22;8984;49.268;12.302;2022-12-18T13:34:26;1.40;99.90
17728;DHT22;8984;49.268;12.302;2022-12-18T13:36:56;1.30;99.90
17728;DHT22;8984;49.268;12.302;2022-12-18T13:39:32;1.30;99.90
17728;DHT22;8984;49.268;12.302;2022-12-18T13:45:59;0.60;99.90
17728;DHT22;8984;49.268;12.302;2022-12-18T13:48:29;0.20;99.90
17728;DHT22;8984;49.268;12.302;2022-12-18T13:51:00;0.00;99.90
17728;DHT22;8984;49.268;12.302;2022-12-18T13:53:33;-0.50;99.90
17728;DHT22;8984;49.268;12.302;2022-12-18T13:56:00;-0.70;99.90
17728;DHT22;8984;49.268;12.302;2022-12-18T13:58:28;-0.90;99.90
17728;DHT22;8984;49.268;12.302;2022-12-18T14:00:56;-1.10;99.90
17728;DHT22;8984;49.268;12.302;2022-12-18T14:03:26;-1.30;99.90
17728;DHT22;8984;49.268;12.302;2022-12-18T14:05:55;-1.40;99.90
17728;DHT22;8984;49.268;12.302;2022-12-18T14:08:23;-1.50;99.90
17728;DHT22;8984;49.268;12.302;2022-12-18T14:10:51;-1.60;99.90
17728;DHT22;8984;49.268;12.302;2022-12-18T14:13:24;-1.70;99.90
17728;DHT22;8984;49.268;12.302;2022-12-18T14:15:54;-1.80;99.90
17728;DHT22;8984;49.268;12.302;2022-12-18T14:18:25;-1.90;99.90
17728;DHT22;8984;49.268;12.302;2022-12-18T14:20:55;-1.90;99.90
17728;DHT22;8984;49.268;12.302;2022-12-18T14:23:31;-1.80;99.90
17728;DHT22;8984;49.268;12.302;2022-12-18T14:25:59;-1.80;99.90
17728;DHT22;8984;49.268;12.302;2022-12-18T14:28:27;-1.80;99.90
17728;DHT22;8984;49.268;12.302;2022-12-18T14:30:54;-1.80;99.90
17728;DHT22;8984;49.268;12.302;2022-12-18T14:33:24;-1.70;99.90
17728;DHT22;8984;49.268;12.302;2022-12-18T14:35:56;-1.80;99.90
17728;DHT22;8984;49.268;12.302;2022-12-18T14:38:29;-1.90;99.90
17728;DHT22;8984;49.268;12.302;2022-12-18T14:40:58;-1.90;99.90
17728;DHT22;8984;49.268;12.302;2022-12-18T14:43:26;-1.90;99.90
17728;DHT22;8984;49.268;12.302;2022-12-18T14:45:54;-1.90;99.90
17728;DHT22;8984;49.268;12.302;2022-12-18T14:48:34;-2.00;99.90
17728;DHT22;8984;49.268;12.302;2022-12-18T14:51:03;-2.00;99.90
17728;DHT22;8984;49.268;12.302;2022-12-18T14:53:34;-2.10;99.90
17728;DHT22;8984;49.268;12.302;2022-12-18T14:56:02;-2.10;99.90
17728;DHT22;8984;49.268;12.302;2022-12-18T14:58:30;-2.20;99.90
17728;DHT22;8984;49.268;12.302;2022-12-18T15:00:57;-2.20;99.90
17728;DHT22;8984;49.268;12.302;2022-12-18T15:03:25;-2.30;99.90
17728;DHT22;8984;49.268;12.302;2022-12-18T15:05:52;-2.50;99.90
17728;DHT22;8984;49.268;12.302;2022-12-18T15:08:31;-2.60;99.90
17728;DHT22;8984;49.268;12.302;2022-12-18T15:11:00;-2.60;99.90
17728;DHT22;8984;49.268;12.302;2022-12-18T15:13:27;-2.70;99.90
17728;DHT22;8984;49.268;12.302;2022-12-18T15:15:55;-2.80;99.90
17728;DHT22;8984;49.268;12.302;2022-12-18T15:18:29;-2.90;99.90
17728;DHT22;8984;49.268;12.302;2022-12-18T15:20:58;-3.00;99.90
17728;DHT22;8984;49.268;12.302;2022-12-18T15:23:27;-3.10;99.90
17728;DHT22;8984;49.268;12.302;2022-12-18T15:25:56;-3.20;99.90
17728;DHT22;8984;49.268;12.302;2022-12-18T15:28:25;-3.20;99.90
17728;DHT22;8984;49.268;12.302;2022-12-18T15:31:24;-3.20;99.90
17728;DHT22;8984;49.268;12.302;2022-12-18T15:34:19;-3.30;99.90
17728;DHT22;8984;49.268;12.302;2022-12-18T15:36:47;-3.30;99.90
17728;DHT22;8984;49.268;12.302;2022-12-18T15:39:14;-3.40;99.90
17728;DHT22;8984;49.268;12.302;2022-12-18T15:41:41;-3.40;99.90
17728;DHT22;8984;49.268;12.302;2022-12-18T15:44:28;-3.50;99.90
17728;DHT22;8984;49.268;12.302;2022-12-18T15:46:53;-3.60;99.90
17728;DHT22;8984;49.268;12.302;2022-12-18T15:49:22;-3.60;99.90
17728;DHT22;8984;49.268;12.302;2022-12-18T15:51:52;-3.70;99.90
17728;DHT22;8984;49.268;12.302;2022-12-18T15:54:19;-3.70;99.90
17728;DHT22;8984;49.268;12.302;2022-12-18T15:57:09;-3.90;99.90
17728;DHT22;8984;49.268;12.302;2022-12-18T15:59:51;-3.90;99.90
17728;DHT22;8984;49.268;12.302;2022-12-18T16:02:20;-3.90;99.90
17728;DHT22;8984;49.268;12.302;2022-12-18T16:04:49;-3.90;99.90